createdAt,value
2022-12-22T00:02:37.267Z,4.47
2022-12-22T00:05:36.550Z,4.63
2022-12-22T00:08:22.186Z,4.68
2022-12-22T00:11:07.906Z,4.58
2022-12-22T00:13:54.150Z,4.73
2022-12-22T00:16:48.506Z,4.92
2022-12-22T00:19:34.115Z,4.87
2022-12-22T00:22:24.403Z,4.58
2022-12-22T00:25:10.139Z,4.22
2022-12-22T00:27:55.740Z,3.40
2022-12-22T00:30:41.438Z,3.56
2022-12-22T00:33:30.682Z,2.89
2022-12-22T00:36:16.267Z,2.88
2022-12-22T00:39:02.047Z,3.51
2022-12-22T00:41:47.776Z,3.84
2022-12-22T00:44:33.297Z,4.13
2022-12-22T00:47:18.929Z,4.34
2022-12-22T00:50:07.696Z,4.37
2022-12-22T00:52:54.345Z,4.39
2022-12-22T00:55:48.483Z,4.53
2022-12-22T00:58:37.645Z,4.29
2022-12-22T01:01:23.445Z,4.27
2022-12-22T01:04:09.163Z,3.84
2022-12-22T01:06:55.376Z,3.48
2022-12-22T01:09:42.034Z,4.03
2022-12-22T01:12:38.532Z,3.77
2022-12-22T01:15:37.061Z,3.56
2022-12-22T01:18:23.407Z,3.56
2022-12-22T01:21:09.062Z,3.07
2022-12-22T01:23:55.169Z,3.48
2022-12-22T01:26:42.358Z,3.41
2022-12-22T01:29:28.107Z,3.91
2022-12-22T01:32:13.818Z,3.60
2022-12-22T01:34:59.783Z,3.97
2022-12-22T01:37:45.964Z,4.05
2022-12-22T01:40:41.863Z,4.14
2022-12-22T01:43:40.116Z,4.48
2022-12-22T01:46:42.928Z,4.22
2022-12-22T01:49:33.881Z,3.75
2022-12-22T01:52:20.486Z,3.06
2022-12-22T01:55:07.284Z,3.67
2022-12-22T01:57:54.196Z,3.68
2022-12-22T02:00:39.885Z,3.23
2022-12-22T02:03:34.680Z,3.40
2022-12-22T02:06:32.626Z,3.49
2022-12-22T02:09:28.186Z,2.48
2022-12-22T02:12:27.969Z,3.45
2022-12-22T02:15:32.089Z,3.22
2022-12-22T02:18:31.015Z,2.84
2022-12-22T02:21:24.905Z,2.88
2022-12-22T02:24:17.172Z,3.20
2022-12-22T02:27:09.093Z,2.96
2022-12-22T02:29:58.422Z,3.08
2022-12-22T02:32:45.152Z,3.50
2022-12-22T02:35:34.346Z,3.76
2022-12-22T02:38:47.436Z,3.82
2022-12-22T02:42:06.314Z,4.04
2022-12-22T02:45:27.366Z,4.39
2022-12-22T02:48:28.687Z,3.96
2022-12-22T02:51:24.365Z,3.06
2022-12-22T02:54:12.546Z,3.60
2022-12-22T02:57:00.344Z,3.53
2022-12-22T02:59:45.995Z,2.76
2022-12-22T03:02:32.824Z,2.88
2022-12-22T03:05:18.971Z,3.13
2022-12-22T03:08:08.332Z,2.88
2022-12-22T03:10:54.551Z,2.63
2022-12-22T03:13:40.859Z,3.19
2022-12-22T03:16:26.595Z,2.97
2022-12-22T03:19:12.565Z,2.49
2022-12-22T03:21:58.279Z,3.11
2022-12-22T03:24:44.195Z,2.40
2022-12-22T03:27:12.205Z,2.54
2022-12-22T03:29:39.744Z,3.56
2022-12-22T03:32:08.849Z,3.17
2022-12-22T03:34:38.368Z,3.06
2022-12-22T03:37:06.016Z,3.31
2022-12-22T03:39:33.089Z,2.97
2022-12-22T03:42:18.942Z,3.57
2022-12-22T03:45:04.526Z,3.43
2022-12-22T03:47:32.211Z,3.40
2022-12-22T03:49:59.095Z,3.27
2022-12-22T03:52:26.147Z,3.87
2022-12-22T03:54:53.050Z,3.62
2022-12-22T03:57:20.056Z,3.99
2022-12-22T03:59:46.966Z,3.86
2022-12-22T04:02:14.038Z,4.30
2022-12-22T04:04:41.034Z,4.39
2022-12-22T04:07:07.927Z,4.06
2022-12-22T04:09:34.890Z,4.24
2022-12-22T04:12:20.324Z,4.38
2022-12-22T04:14:47.305Z,3.89
2022-12-22T04:17:14.201Z,3.28
2022-12-22T04:19:41.483Z,3.76
2022-12-22T04:22:08.998Z,3.80
2022-12-22T04:24:35.919Z,3.99
2022-12-22T04:27:02.814Z,3.94
2022-12-22T04:29:29.754Z,3.29
2022-12-22T04:31:56.817Z,3.46
2022-12-22T04:34:23.946Z,3.70
2022-12-22T04:36:50.845Z,3.27
2022-12-22T04:39:17.752Z,3.61
2022-12-22T04:41:45.394Z,3.07
2022-12-22T04:44:12.323Z,3.11
2022-12-22T04:46:39.258Z,2.96
2022-12-22T04:49:06.144Z,2.77
2022-12-22T04:51:33.124Z,2.50
2022-12-22T04:54:00.049Z,3.26
2022-12-22T04:56:27.084Z,2.49
2022-12-22T04:58:53.975Z,2.86
2022-12-22T05:01:21.313Z,3.22
2022-12-22T05:03:48.529Z,3.14
2022-12-22T05:06:16.410Z,3.17
2022-12-22T05:08:43.372Z,3.49
2022-12-22T05:11:10.658Z,3.12
2022-12-22T05:13:37.763Z,3.31
2022-12-22T05:16:10.609Z,2.73
2022-12-22T05:18:39.422Z,3.27
2022-12-22T05:21:18.548Z,3.34
2022-12-22T05:23:46.210Z,2.80
2022-12-22T05:26:14.862Z,3.10
2022-12-22T05:28:42.832Z,2.59
2022-12-22T05:31:14.249Z,2.57
2022-12-22T05:33:41.164Z,2.66
2022-12-22T05:36:08.495Z,3.32
2022-12-22T05:38:35.416Z,3.26
2022-12-22T05:41:04.635Z,3.18
2022-12-22T05:43:32.920Z,3.29
2022-12-22T05:46:08.669Z,2.90
2022-12-22T05:48:39.169Z,3.07
2022-12-22T05:51:08.797Z,3.00
2022-12-22T05:53:35.914Z,2.03
2022-12-22T05:56:02.902Z,2.32
2022-12-22T05:58:29.825Z,2.59
2022-12-22T06:00:58.716Z,3.08
2022-12-22T06:03:26.813Z,2.63
2022-12-22T06:05:54.413Z,2.97
2022-12-22T06:08:21.573Z,3.04
2022-12-22T06:10:50.631Z,3.61
2022-12-22T06:13:17.665Z,3.95
2022-12-22T06:15:44.621Z,4.00
2022-12-22T06:18:11.974Z,4.22
2022-12-22T06:20:38.846Z,4.16
2022-12-22T06:23:05.745Z,4.45
2022-12-22T06:25:33.213Z,4.52
2022-12-22T06:28:02.882Z,4.58
2022-12-22T06:30:33.633Z,4.70
2022-12-22T06:33:01.797Z,4.77
2022-12-22T06:35:29.038Z,4.76
2022-12-22T06:37:56.225Z,4.74
2022-12-22T06:40:23.463Z,4.84
2022-12-22T06:43:09.873Z,4.96
2022-12-22T06:45:40.265Z,4.87
2022-12-22T06:48:08.410Z,4.49
2022-12-22T06:50:35.432Z,4.22
2022-12-22T06:53:03.164Z,4.21
2022-12-22T06:55:30.084Z,4.36
2022-12-22T06:57:57.078Z,4.63
2022-12-22T07:00:24.093Z,4.18
2022-12-22T07:02:51.169Z,3.66
2022-12-22T07:05:18.267Z,3.90
2022-12-22T07:07:45.504Z,4.11
2022-12-22T07:10:12.792Z,4.09
2022-12-22T07:12:39.774Z,4.36
2022-12-22T07:15:07.327Z,3.91
2022-12-22T07:17:34.395Z,3.96
2022-12-22T07:20:01.459Z,3.74
2022-12-22T07:22:30.753Z,4.27
2022-12-22T07:24:59.299Z,3.79
2022-12-22T07:27:26.338Z,3.12
2022-12-22T07:29:53.255Z,2.57
2022-12-22T07:32:20.139Z,3.39
2022-12-22T07:34:47.090Z,3.79
2022-12-22T07:37:14.204Z,3.93
2022-12-22T07:39:41.347Z,3.62
2022-12-22T07:42:29.575Z,3.42
2022-12-22T07:44:56.547Z,4.03
2022-12-22T07:47:23.740Z,3.75
2022-12-22T07:50:10.198Z,3.07
2022-12-22T07:52:37.312Z,3.30
2022-12-22T07:55:04.434Z,4.03
2022-12-22T07:57:31.552Z,3.74
2022-12-22T07:59:58.553Z,3.65
2022-12-22T08:02:25.761Z,3.09
2022-12-22T08:04:52.765Z,3.40
2022-12-22T08:07:19.744Z,3.38
2022-12-22T08:09:46.724Z,3.82
2022-12-22T08:12:15.388Z,4.00
2022-12-22T08:14:46.202Z,3.10
2022-12-22T08:17:13.503Z,3.20
2022-12-22T08:19:41.124Z,3.58
2022-12-22T08:22:08.146Z,3.29
2022-12-22T08:24:35.089Z,3.18
2022-12-22T08:27:06.313Z,3.23
2022-12-22T08:29:38.866Z,3.72
2022-12-22T08:32:05.929Z,3.75
2022-12-22T08:34:33.134Z,3.12
2022-12-22T08:37:02.245Z,3.26
2022-12-22T08:39:33.043Z,3.75
2022-12-22T08:42:00.735Z,3.49
2022-12-22T08:44:31.572Z,3.78
2022-12-22T08:47:00.334Z,3.46
2022-12-22T08:49:27.743Z,3.46
2022-12-22T08:51:54.996Z,4.10
2022-12-22T08:54:22.288Z,3.93
2022-12-22T08:56:49.829Z,3.65
2022-12-22T08:59:17.549Z,3.53
2022-12-22T09:01:50.886Z,3.90
2022-12-22T09:04:21.283Z,3.64
2022-12-22T09:06:49.157Z,4.05
2022-12-22T09:09:16.782Z,3.90
2022-12-22T09:11:44.016Z,3.91
2022-12-22T09:14:12.649Z,4.25
2022-12-22T09:16:39.993Z,4.59
2022-12-22T09:19:07.255Z,4.53
2022-12-22T09:21:35.128Z,4.43
2022-12-22T09:24:03.556Z,4.70
2022-12-22T09:26:30.702Z,4.91
2022-12-22T09:28:58.194Z,5.16
2022-12-22T09:31:26.336Z,5.32
2022-12-22T09:33:53.680Z,5.65
2022-12-22T09:36:24.093Z,5.64
2022-12-22T09:38:53.635Z,5.58
2022-12-22T09:41:45.924Z,5.63
2022-12-22T09:44:38.479Z,5.02
2022-12-22T09:47:36.343Z,5.54
2022-12-22T09:50:05.444Z,5.58
2022-12-22T09:52:35.558Z,5.66
2022-12-22T09:55:04.834Z,6.18
2022-12-22T09:57:33.043Z,6.31
2022-12-22T10:00:28.593Z,5.31
2022-12-22T10:03:04.216Z,6.23
2022-12-22T10:05:40.324Z,6.44
2022-12-22T10:08:16.973Z,6.75
2022-12-22T10:10:43.946Z,6.04
2022-12-22T10:13:19.998Z,6.28
2022-12-22T10:15:47.238Z,5.99
2022-12-22T10:18:21.863Z,5.70
2022-12-22T10:21:13.932Z,5.88
2022-12-22T10:23:46.545Z,6.36
2022-12-22T10:26:34.084Z,6.36
2022-12-22T10:29:09.381Z,6.16
2022-12-22T10:31:55.021Z,6.68
2022-12-22T10:34:22.184Z,6.32
2022-12-22T10:36:51.802Z,6.39
2022-12-22T10:39:28.339Z,6.17
2022-12-22T10:42:01.298Z,5.97
2022-12-22T10:44:37.365Z,5.88
2022-12-22T10:47:19.745Z,5.65
2022-12-22T10:49:50.053Z,5.76
2022-12-22T10:52:32.326Z,6.11
2022-12-22T10:55:33.070Z,5.73
2022-12-22T10:58:21.813Z,6.37
2022-12-22T11:01:03.096Z,5.89
2022-12-22T11:03:32.028Z,5.81
2022-12-22T11:06:01.103Z,5.72
2022-12-22T11:08:30.491Z,5.82
2022-12-22T11:11:05.631Z,5.98
2022-12-22T11:13:44.638Z,5.83
2022-12-22T11:16:38.402Z,6.08
2022-12-22T11:19:56.158Z,6.29
2022-12-22T11:22:46.163Z,6.48
2022-12-22T11:25:19.588Z,6.91
2022-12-22T11:28:11.143Z,6.77
2022-12-22T11:31:06.509Z,7.32
2022-12-22T11:33:52.345Z,7.33
2022-12-22T11:36:30.505Z,8.01
2022-12-22T11:39:15.103Z,7.84
2022-12-22T11:41:46.539Z,8.44
2022-12-22T11:44:41.344Z,8.34
2022-12-22T11:47:14.524Z,8.68
2022-12-22T11:50:25.451Z,9.07
2022-12-22T11:53:06.031Z,8.16
2022-12-22T11:55:36.077Z,8.25
2022-12-22T11:58:14.879Z,8.08
2022-12-22T12:01:25.595Z,7.78
2022-12-22T12:04:14.718Z,7.99
2022-12-22T12:06:55.074Z,7.63
2022-12-22T12:09:59.199Z,8.19
2022-12-22T12:13:00.921Z,7.90
2022-12-22T12:15:32.833Z,7.81
2022-12-22T12:18:12.733Z,7.32
2022-12-22T12:20:46.618Z,7.31
2022-12-22T12:23:50.690Z,7.56
2022-12-22T12:26:57.083Z,6.80
2022-12-22T12:29:41.236Z,7.24
2022-12-22T12:32:45.343Z,7.38
2022-12-22T12:35:35.967Z,6.88
2022-12-22T12:38:47.928Z,6.71
2022-12-22T12:41:08.177Z,6.51
2022-12-22T12:43:36.294Z,6.43
2022-12-22T12:46:42.179Z,5.95
2022-12-22T12:49:50.843Z,6.01
2022-12-22T12:52:17.765Z,5.61
2022-12-22T12:54:49.493Z,5.70
2022-12-22T12:57:30.926Z,6.00
2022-12-22T12:59:59.851Z,6.31
2022-12-22T13:02:38.297Z,6.02
2022-12-22T13:05:14.823Z,5.79
2022-12-22T13:08:14.679Z,5.30
2022-12-22T13:10:43.182Z,5.82
2022-12-22T13:13:13.835Z,5.78
2022-12-22T13:15:42.976Z,5.79
2022-12-22T13:18:15.947Z,5.67
2022-12-22T13:20:43.153Z,5.74
2022-12-22T13:23:15.321Z,5.66
2022-12-22T13:25:48.211Z,5.80
2022-12-22T13:28:17.587Z,5.76
2022-12-22T13:30:50.715Z,6.01
2022-12-22T13:33:21.268Z,6.31
2022-12-22T13:35:56.545Z,6.01
2022-12-22T13:38:38.013Z,5.55
2022-12-22T13:41:26.623Z,6.27
2022-12-22T13:44:07.015Z,6.01
2022-12-22T13:46:37.965Z,6.14
2022-12-22T13:49:10.356Z,6.39
2022-12-22T13:51:38.774Z,6.31
2022-12-22T13:54:17.558Z,6.60
2022-12-22T13:56:48.167Z,6.46
2022-12-22T13:59:33.520Z,5.93
2022-12-22T14:02:18.104Z,6.42
2022-12-22T14:05:23.805Z,6.43
2022-12-22T14:07:59.895Z,6.50
2022-12-22T14:10:34.243Z,6.21
2022-12-22T14:13:05.804Z,6.38
2022-12-22T14:15:33.211Z,6.11
2022-12-22T14:18:00.503Z,6.30
2022-12-22T14:20:40.390Z,6.17
2022-12-22T14:23:22.217Z,6.27
2022-12-22T14:25:50.709Z,6.44
2022-12-22T14:28:36.340Z,6.52
2022-12-22T14:31:05.938Z,6.17
2022-12-22T14:33:35.027Z,6.30
2022-12-22T14:36:06.750Z,6.27
2022-12-22T14:38:48.367Z,6.68
2022-12-22T14:41:38.134Z,6.49
2022-12-22T14:44:05.697Z,6.15
2022-12-22T14:46:38.619Z,6.06
2022-12-22T14:49:06.387Z,6.17
2022-12-22T14:51:33.337Z,6.54
2022-12-22T14:54:03.151Z,6.17
2022-12-22T14:56:29.944Z,6.20
2022-12-22T14:59:23.917Z,6.48
2022-12-22T15:02:21.156Z,6.57
2022-12-22T15:04:48.441Z,6.81
2022-12-22T15:07:54.445Z,6.48
2022-12-22T15:10:20.699Z,6.57
2022-12-22T15:12:49.104Z,6.87
2022-12-22T15:15:21.695Z,7.38
2022-12-22T15:17:52.286Z,7.39
2022-12-22T15:20:22.744Z,7.38
2022-12-22T15:22:50.238Z,7.57
2022-12-22T15:25:25.221Z,7.39
2022-12-22T15:27:52.638Z,7.65
2022-12-22T15:30:28.935Z,6.90
2022-12-22T15:32:57.163Z,7.57
2022-12-22T15:35:33.151Z,7.68
2022-12-22T15:38:00.690Z,7.56
2022-12-22T15:40:28.927Z,7.43
2022-12-22T15:42:55.865Z,7.29
2022-12-22T15:45:23.193Z,7.08
2022-12-22T15:47:53.843Z,7.61
2022-12-22T15:50:38.666Z,6.93
2022-12-22T15:53:12.827Z,7.00
2022-12-22T15:55:43.177Z,7.26
2022-12-22T15:58:13.804Z,7.11
2022-12-22T16:00:40.779Z,6.91
2022-12-22T16:03:08.116Z,7.04
2022-12-22T16:05:35.185Z,6.71
2022-12-22T16:08:03.045Z,6.46
2022-12-22T16:10:34.307Z,6.46
2022-12-22T16:13:04.368Z,6.36
2022-12-22T16:15:33.952Z,6.34
2022-12-22T16:18:02.557Z,6.67
2022-12-22T16:20:37.784Z,6.67
2022-12-22T16:23:08.042Z,6.40
2022-12-22T16:25:39.209Z,6.83
2022-12-22T16:28:07.271Z,6.68
2022-12-22T16:30:34.829Z,7.11
2022-12-22T16:33:02.005Z,7.24
2022-12-22T16:35:33.575Z,6.97
2022-12-22T16:38:00.829Z,6.36
2022-12-22T16:40:28.575Z,6.38
2022-12-22T16:46:05.975Z,6.35
2022-12-22T16:48:42.707Z,6.72
2022-12-22T16:51:17.163Z,6.98
2022-12-22T16:53:44.209Z,6.32
2022-12-22T16:56:20.522Z,6.75
2022-12-22T16:58:48.428Z,6.67
2022-12-22T17:01:34.841Z,6.62
2022-12-22T17:04:09.935Z,6.15
2022-12-22T17:06:37.589Z,6.73
2022-12-22T17:09:07.667Z,6.32
2022-12-22T17:11:34.772Z,6.27
2022-12-22T17:14:40.534Z,6.91
2022-12-22T17:17:17.764Z,6.99
2022-12-22T17:19:45.251Z,6.86
2022-12-22T17:22:33.811Z,6.68
2022-12-22T17:25:04.726Z,6.46
2022-12-22T17:27:33.934Z,6.67
2022-12-22T17:30:05.909Z,6.76
2022-12-22T17:32:32.933Z,7.02
2022-12-22T17:34:59.875Z,7.21
2022-12-22T17:37:26.912Z,7.41
2022-12-22T17:40:00.430Z,7.68
2022-12-22T17:42:27.471Z,7.91
2022-12-22T17:44:54.412Z,7.67
2022-12-22T17:47:29.031Z,7.69
2022-12-22T17:50:00.987Z,7.64
2022-12-22T17:52:28.557Z,7.87
2022-12-22T17:54:58.080Z,7.98
2022-12-22T17:57:32.951Z,8.15
2022-12-22T18:00:00.789Z,8.12
2022-12-22T18:02:28.182Z,8.23
2022-12-22T18:04:55.304Z,8.25
2022-12-22T18:07:24.989Z,8.30
2022-12-22T18:09:59.281Z,8.30
2022-12-22T18:12:26.891Z,8.39
2022-12-22T18:14:54.585Z,8.47
2022-12-22T18:17:35.577Z,8.56
2022-12-22T18:20:03.130Z,8.60
2022-12-22T18:22:30.957Z,8.55
2022-12-22T18:24:58.096Z,8.60
2022-12-22T18:27:25.146Z,8.73
2022-12-22T18:29:52.195Z,8.76
2022-12-22T18:32:27.019Z,8.72
2022-12-22T18:34:56.828Z,8.78
2022-12-22T18:37:23.794Z,8.80
2022-12-22T18:39:50.786Z,8.76
2022-12-22T18:42:23.443Z,8.85
2022-12-22T18:44:51.600Z,8.77
2022-12-22T18:47:18.900Z,8.90
2022-12-22T18:49:46.176Z,8.57
2022-12-22T18:52:19.551Z,7.96
2022-12-22T18:54:47.491Z,7.39
2022-12-22T18:57:16.768Z,7.28
2022-12-22T18:59:44.368Z,7.80
2022-12-22T19:02:26.548Z,7.10
2022-12-22T19:04:54.669Z,7.78
2022-12-22T19:07:24.564Z,6.89
2022-12-22T19:09:51.826Z,6.69
2022-12-22T19:12:25.467Z,6.93
2022-12-22T19:14:57.553Z,6.24
2022-12-22T19:17:29.083Z,6.54
2022-12-22T19:19:57.077Z,6.83
2022-12-22T19:22:24.320Z,6.39
2022-12-22T19:24:51.818Z,6.39
2022-12-22T19:27:27.019Z,6.43
2022-12-22T19:30:03.030Z,6.76
2022-12-22T19:32:36.111Z,7.09
2022-12-22T19:35:03.221Z,7.28
2022-12-22T19:37:30.182Z,7.40
2022-12-22T19:39:57.085Z,7.56
2022-12-22T19:42:25.563Z,7.63
2022-12-22T19:44:52.521Z,6.88
2022-12-22T19:47:22.159Z,6.82
2022-12-22T19:49:49.144Z,6.28
2022-12-22T19:52:16.065Z,5.40
2022-12-22T19:54:42.995Z,4.97
2022-12-22T19:57:18.431Z,5.14
2022-12-22T19:59:48.975Z,5.37
2022-12-22T20:02:28.310Z,5.21
2022-12-22T20:04:56.315Z,5.62
2022-12-22T20:07:26.164Z,5.62
2022-12-22T20:09:52.975Z,6.02
2022-12-22T20:12:22.997Z,6.35
2022-12-22T20:14:49.999Z,6.48
2022-12-22T20:17:16.990Z,6.19
2022-12-22T20:19:43.969Z,6.36
2022-12-22T20:22:16.393Z,6.71
2022-12-22T20:24:45.362Z,6.86
2022-12-22T20:27:23.392Z,6.90
2022-12-22T20:29:50.429Z,6.41
2022-12-22T20:32:22.299Z,6.33
2022-12-22T20:34:55.680Z,5.84
2022-12-22T20:37:22.698Z,6.31
2022-12-22T20:39:49.673Z,6.41
2022-12-22T20:42:22.675Z,5.98
2022-12-22T20:45:01.559Z,5.67
2022-12-22T20:47:28.873Z,6.43
2022-12-22T20:49:55.725Z,6.77
2022-12-22T20:52:22.586Z,7.07
2022-12-22T20:54:49.600Z,7.24
2022-12-22T20:57:17.212Z,7.32
2022-12-22T20:59:44.655Z,7.42
2022-12-22T21:02:37.680Z,7.50
2022-12-22T21:05:05.104Z,7.53
2022-12-22T21:07:32.251Z,7.52
2022-12-22T21:09:59.377Z,7.67
2022-12-22T21:12:26.235Z,7.83
2022-12-22T21:14:53.101Z,7.89
2022-12-22T21:17:20.125Z,8.03
2022-12-22T21:19:47.334Z,7.93
2022-12-22T21:22:14.396Z,7.93
2022-12-22T21:24:42.034Z,7.84
2022-12-22T21:27:16.110Z,7.83
2022-12-22T21:29:50.457Z,7.82
2022-12-22T21:32:19.100Z,7.76
2022-12-22T21:34:45.952Z,6.81
2022-12-22T21:37:19.129Z,7.30
2022-12-22T21:39:46.025Z,7.42
2022-12-22T21:42:16.719Z,7.31
2022-12-22T21:44:45.021Z,7.68
2022-12-22T21:47:19.845Z,7.25
2022-12-22T21:49:46.862Z,7.24
2022-12-22T21:52:13.706Z,7.30
2022-12-22T21:54:40.583Z,7.13
2022-12-22T21:57:11.399Z,5.91
2022-12-22T21:59:38.236Z,6.29
2022-12-22T22:02:14.021Z,6.60
2022-12-22T22:04:40.925Z,6.62
2022-12-22T22:07:07.970Z,6.19
2022-12-22T22:09:34.927Z,5.95
2022-12-22T22:12:26.412Z,5.94
2022-12-22T22:14:55.028Z,6.49
2022-12-22T22:17:21.849Z,5.97
2022-12-22T22:19:48.704Z,6.27
2022-12-22T22:22:15.685Z,6.34
2022-12-22T22:24:42.506Z,6.46
2022-12-22T22:27:09.328Z,5.85
2022-12-22T22:29:36.268Z,5.98
2022-12-22T22:32:03.212Z,6.41
2022-12-22T22:34:30.145Z,6.25
2022-12-22T22:36:57.070Z,6.71
2022-12-22T22:39:24.267Z,6.86
2022-12-22T22:41:51.138Z,6.65
2022-12-22T22:44:18.129Z,6.65
2022-12-22T22:46:45.037Z,6.48
2022-12-22T22:49:11.992Z,6.83
2022-12-22T22:51:38.979Z,6.87
2022-12-22T22:54:05.852Z,7.18
2022-12-22T22:56:32.867Z,6.72
2022-12-22T22:59:00.136Z,6.66
2022-12-22T23:01:29.197Z,7.13
2022-12-22T23:03:56.194Z,7.40
2022-12-22T23:06:23.428Z,7.31
2022-12-22T23:08:50.931Z,7.41
2022-12-22T23:11:17.814Z,7.62
2022-12-22T23:13:45.596Z,7.77
2022-12-22T23:16:12.562Z,7.59
2022-12-22T23:18:41.291Z,7.55
2022-12-22T23:21:09.726Z,7.58
2022-12-22T23:23:36.891Z,7.67
2022-12-22T23:26:03.947Z,7.67
2022-12-22T23:28:32.356Z,7.71
2022-12-22T23:30:59.375Z,7.84
2022-12-22T23:33:26.305Z,7.85
2022-12-22T23:35:53.676Z,7.88
2022-12-22T23:38:21.213Z,8.00
2022-12-22T23:40:53.665Z,7.88
2022-12-22T23:43:21.907Z,7.91
2022-12-22T23:45:49.053Z,7.74
2022-12-22T23:48:15.966Z,7.23
2022-12-22T23:50:46.629Z,7.42
2022-12-22T23:53:14.099Z,7.73
2022-12-22T23:55:45.061Z,7.98
2022-12-22T23:58:12.075Z,7.71
